Aviation Digital Data Service (ADDS)

Output produced by TAFs form (0522 UTC 21 October 2014)
found at http://aviationweather.gov/adds/tafs/
 
KASE 202339Z 2100/2124 32006KT P6SM SCT070 BKN140 
     FM210100 21006KT P6SM BKN120 
     FM211400 VRB03KT P6SM BKN100 
     FM211600 32006KT P6SM VCSH SCT040 OVC070 
     FM211800 34008KT P6SM -SHRA BKN040 OVC060